Time;durP1;ratioP1;P1;durP2;ratioP2;P2;SDS_P1;SDS_P2;PMS_P1;PMS_P2;Temp;Humidity;BMP_temperature;BMP_pressure;BME280_temperature;BME280_humidity;BME280_pressure;Samples;Min_cycle;Max_cycle;Signal;HPM_P1;HPM_P2
2021/09/27 00:00:27;;;;;;;10.03;8.30;;;17.30;99.90;;;;;;5005372;28;20347;-51
2021/09/27 00:02:54;;;;;;;8.47;7.60;;;17.30;99.90;;;;;;5008401;28;20703;-51
2021/09/27 00:05:22;;;;;;;8.90;7.97;;;17.10;99.90;;;;;;5005805;28;20199;-51
2021/09/27 00:07:49;;;;;;;10.13;7.77;;;17.00;99.90;;;;;;5004506;28;20642;-51
2021/09/27 00:10:29;;;;;;;10.73;8.07;;;17.10;99.90;;;;;;5005728;28;20237;-51
2021/09/27 00:12:56;;;;;;;9.53;7.73;;;17.10;99.90;;;;;;5010231;28;20265;-51
2021/09/27 00:15:31;;;;;;;9.57;7.93;;;17.00;99.90;;;;;;5012886;28;20204;-51
2021/09/27 00:17:58;;;;;;;9.50;8.50;;;17.00;99.90;;;;;;5013385;28;20225;-51
2021/09/27 00:20:26;;;;;;;12.30;8.70;;;16.90;99.90;;;;;;5014284;28;20218;-51
2021/09/27 00:22:53;;;;;;;12.57;8.10;;;17.00;99.90;;;;;;5006105;28;20246;-51
2021/09/27 00:25:23;;;;;;;11.40;8.07;;;17.10;99.90;;;;;;5003367;28;20241;-51
2021/09/27 00:27:50;;;;;;;8.73;7.70;;;17.10;99.90;;;;;;5003888;28;20226;-51
2021/09/27 00:30:18;;;;;;;11.23;7.70;;;17.20;99.90;;;;;;5005217;28;20289;-50
2021/09/27 00:32:46;;;;;;;11.90;7.80;;;17.20;99.90;;;;;;5007237;28;20361;-51
2021/09/27 00:35:16;;;;;;;10.37;8.13;;;17.20;99.90;;;;;;4999283;28;20260;-50
2021/09/27 00:37:43;;;;;;;11.07;8.07;;;17.30;99.90;;;;;;5007928;28;20199;-51
2021/09/27 00:40:13;;;;;;;9.57;7.83;;;17.30;99.90;;;;;;5000953;28;20299;-51
2021/09/27 00:42:40;;;;;;;10.13;7.57;;;17.20;99.90;;;;;;5001066;28;20223;-51
2021/09/27 00:45:09;;;;;;;10.10;7.33;;;17.30;99.90;;;;;;5001289;28;20260;-51
2021/09/27 00:47:36;;;;;;;11.37;8.10;;;17.20;99.90;;;;;;5001178;28;20231;-51
2021/09/27 00:50:04;;;;;;;11.67;7.80;;;17.00;99.90;;;;;;5010520;28;20290;-51
2021/09/27 00:52:31;;;;;;;11.60;7.63;;;17.00;99.90;;;;;;5004407;28;20238;-51
2021/09/27 00:54:59;;;;;;;10.40;7.90;;;17.00;99.90;;;;;;4998602;28;20698;-51
2021/09/27 00:57:27;;;;;;;10.00;8.47;;;17.00;99.90;;;;;;5001617;28;20745;-51
2021/09/27 00:59:56;;;;;;;10.30;8.00;;;17.00;99.90;;;;;;5001307;28;20291;-51
2021/09/27 01:02:23;;;;;;;12.13;7.47;;;17.00;99.90;;;;;;4998335;28;20207;-51
2021/09/27 01:04:50;;;;;;;10.43;8.37;;;17.00;99.90;;;;;;4998407;28;20247;-51
2021/09/27 01:07:30;;;;;;;9.10;8.17;;;17.00;99.90;;;;;;4999338;28;20287;-51
2021/09/27 01:10:14;;;;;;;12.07;8.37;;;16.90;99.90;;;;;;5002078;28;20298;-51
2021/09/27 01:12:56;;;;;;;12.97;8.30;;;16.90;99.90;;;;;;5004273;28;20207;-51
2021/09/27 01:15:53;;;;;;;12.73;8.93;;;17.00;99.90;;;;;;5003279;28;20199;-51
2021/09/27 01:19:05;;;;;;;9.77;7.77;;;17.00;99.90;;;;;;5005162;28;20675;-51
2021/09/27 01:21:42;;;;;;;10.00;8.20;;;17.00;99.90;;;;;;4981242;28;20218;-51
2021/09/27 01:24:31;;;;;;;10.17;8.10;;;17.00;99.90;;;;;;5002543;28;20235;-51
2021/09/27 01:27:44;;;;;;;9.33;8.33;;;16.80;99.90;;;;;;5005682;28;20286;-50
2021/09/27 01:31:04;;;;;;;9.77;8.70;;;16.80;99.90;;;;;;5005495;28;20559;-51
2021/09/27 01:33:42;;;;;;;9.23;8.03;;;16.80;99.90;;;;;;4980067;28;20296;-51
2021/09/27 01:36:27;;;;;;;9.63;7.83;;;16.90;99.90;;;;;;4981196;28;20232;-51
2021/09/27 01:39:15;;;;;;;8.23;7.33;;;16.90;99.90;;;;;;4991628;28;20269;-51
2021/09/27 01:42:01;;;;;;;9.53;7.97;;;16.80;99.90;;;;;;5004443;28;20297;-51
2021/09/27 01:44:39;;;;;;;10.57;7.73;;;16.80;99.90;;;;;;5006087;28;20334;-51
2021/09/27 01:47:39;;;;;;;11.27;8.47;;;16.80;99.90;;;;;;5001335;28;20206;-51
2021/09/27 01:50:15;;;;;;;12.23;8.17;;;16.80;99.90;;;;;;5000653;28;20199;-50
2021/09/27 01:52:47;;;;;;;11.80;8.10;;;16.80;99.90;;;;;;5003041;28;20252;-51
2021/09/27 01:55:31;;;;;;;10.63;8.03;;;16.80;99.90;;;;;;5002220;28;20229;-51
2021/09/27 01:58:41;;;;;;;11.97;8.00;;;16.70;99.90;;;;;;5005065;28;20240;-51
2021/09/27 02:01:39;;;;;;;12.33;8.60;;;16.60;99.90;;;;;;5003571;28;20528;-51
2021/09/27 02:04:19;;;;;;;11.53;8.27;;;16.70;99.90;;;;;;5002065;28;20312;-51
2021/09/27 02:06:50;;;;;;;9.37;7.73;;;16.60;99.90;;;;;;5001164;28;20215;-51
2021/09/27 02:09:21;;;;;;;10.83;8.17;;;16.60;99.90;;;;;;5003228;28;20254;-51
2021/09/27 02:11:54;;;;;;;9.27;7.73;;;16.40;99.90;;;;;;5004672;28;20239;-51
2021/09/27 02:14:27;;;;;;;10.87;8.30;;;16.40;99.90;;;;;;5004166;28;20223;-51
2021/09/27 02:17:06;;;;;;;12.07;7.67;;;16.60;99.90;;;;;;5006439;28;20671;-51
2021/09/27 02:19:32;;;;;;;10.90;8.10;;;16.60;99.90;;;;;;5005782;28;20252;-51
2021/09/27 02:22:15;;;;;;;9.13;8.07;;;16.60;99.90;;;;;;5005357;28;20318;-51
2021/09/27 02:25:01;;;;;;;11.47;8.30;;;16.60;99.90;;;;;;4999498;28;20298;-50
2021/09/27 02:27:28;;;;;;;14.07;8.70;;;16.60;99.90;;;;;;5004453;28;20222;-51
2021/09/27 02:29:55;;;;;;;10.67;7.70;;;16.60;99.90;;;;;;5002667;28;20326;-50
2021/09/27 02:32:36;;;;;;;10.57;8.23;;;16.60;99.90;;;;;;5005779;28;20325;-51
2021/09/27 02:35:08;;;;;;;10.50;9.13;;;16.60;99.90;;;;;;5006395;28;20237;-51
2021/09/27 02:37:52;;;;;;;12.00;8.17;;;16.60;99.90;;;;;;5003797;28;20309;-51
2021/09/27 02:40:33;;;;;;;13.10;8.50;;;16.60;99.90;;;;;;4998302;28;20248;-51
2021/09/27 02:43:04;;;;;;;10.90;7.83;;;16.50;99.90;;;;;;5003682;28;20337;-51
2021/09/27 02:45:31;;;;;;;11.00;8.37;;;16.50;99.90;;;;;;4997110;28;20232;-51
2021/09/27 02:48:12;;;;;;;12.37;9.10;;;16.50;99.90;;;;;;5002560;28;20197;-51
2021/09/27 02:50:42;;;;;;;10.83;8.57;;;16.40;99.90;;;;;;5003156;28;20223;-51
2021/09/27 02:53:10;;;;;;;11.10;8.83;;;16.40;99.90;;;;;;5004365;28;20228;-51
2021/09/27 02:55:46;;;;;;;11.17;8.63;;;16.50;99.90;;;;;;4996311;28;20630;-51
2021/09/27 02:58:20;;;;;;;11.57;9.43;;;16.50;99.90;;;;;;5008765;28;20297;-51
2021/09/27 03:00:57;;;;;;;10.93;8.73;;;16.50;99.90;;;;;;5006659;28;20337;-51
2021/09/27 03:03:58;;;;;;;12.47;8.67;;;16.40;99.90;;;;;;5003351;28;20222;-50
2021/09/27 03:06:51;;;;;;;10.83;8.23;;;16.40;99.90;;;;;;4995720;28;20682;-51
2021/09/27 03:09:37;;;;;;;10.03;8.70;;;16.10;99.90;;;;;;4991127;28;20345;-51
2021/09/27 03:12:42;;;;;;;10.93;8.73;;;16.20;99.90;;;;;;5003157;28;20290;-51
2021/09/27 03:15:55;;;;;;;9.80;8.47;;;16.30;99.90;;;;;;4998081;28;20435;-51
2021/09/27 03:18:55;;;;;;;11.13;9.07;;;16.30;99.90;;;;;;5008841;28;20207;-51
2021/09/27 03:21:47;;;;;;;12.77;9.13;;;16.30;99.90;;;;;;4976977;28;20288;-51
2021/09/27 03:24:45;;;;;;;14.33;8.87;;;16.30;99.90;;;;;;5004162;28;20270;-51
2021/09/27 03:27:24;;;;;;;10.70;8.77;;;16.40;99.90;;;;;;5000063;28;20260;-51
2021/09/27 03:30:26;;;;;;;12.53;8.83;;;16.40;99.90;;;;;;5003938;28;20278;-51
2021/09/27 03:33:08;;;;;;;13.00;8.90;;;16.40;99.90;;;;;;5006670;28;20216;-50
2021/09/27 03:35:56;;;;;;;13.23;9.50;;;16.40;99.90;;;;;;5009314;28;20371;-51
2021/09/27 03:38:39;;;;;;;12.80;8.93;;;16.50;99.90;;;;;;5008005;28;20326;-51
2021/09/27 03:41:21;;;;;;;11.13;9.37;;;16.50;99.90;;;;;;5004137;28;20198;-51
2021/09/27 03:44:08;;;;;;;12.43;9.03;;;16.60;99.90;;;;;;5004027;28;20290;-51
2021/09/27 03:47:03;;;;;;;13.37;9.40;;;16.40;99.90;;;;;;5007772;28;20341;-51
2021/09/27 03:50:00;;;;;;;12.33;9.97;;;16.50;99.90;;;;;;5004523;28;20238;-51
2021/09/27 03:52:48;;;;;;;17.50;9.17;;;16.50;99.90;;;;;;5005094;28;20258;-51
2021/09/27 03:55:43;;;;;;;13.20;8.97;;;16.60;99.90;;;;;;4998531;28;20218;-51
2021/09/27 03:58:32;;;;;;;12.93;8.70;;;16.60;99.90;;;;;;5006280;28;20298;-51
2021/09/27 04:01:09;;;;;;;11.70;8.33;;;16.50;99.90;;;;;;5004953;28;20229;-51
2021/09/27 04:03:54;;;;;;;11.23;9.00;;;16.60;99.90;;;;;;5008499;28;20306;-51
2021/09/27 04:06:46;;;;;;;11.87;8.77;;;16.60;99.90;;;;;;5001348;28;20287;-51
2021/09/27 04:09:22;;;;;;;12.80;8.60;;;16.60;99.90;;;;;;5006968;28;20612;-51
2021/09/27 04:12:26;;;;;;;13.83;8.47;;;16.50;99.90;;;;;;5002300;28;20207;-51
2021/09/27 04:15:05;;;;;;;14.23;8.43;;;16.50;99.90;;;;;;5005174;28;20271;-51
2021/09/27 04:18:26;;;;;;;11.83;9.17;;;16.60;99.90;;;;;;5006251;28;20297;-51
2021/09/27 04:21:02;;;;;;;10.07;8.40;;;16.70;99.90;;;;;;4983982;28;20250;-52
2021/09/27 04:23:32;;;;;;;13.10;9.03;;;16.70;99.90;;;;;;4981632;28;20351;-52
2021/09/27 04:26:51;;;;;;;12.23;8.77;;;16.60;99.90;;;;;;4978456;28;20295;-52
2021/09/27 04:29:33;;;;;;;12.07;9.40;;;16.50;99.90;;;;;;4948550;28;20212;-52
2021/09/27 04:32:15;;;;;;;12.40;8.63;;;16.50;99.90;;;;;;4987660;28;20227;-52
2021/09/27 04:34:48;;;;;;;12.30;8.47;;;16.60;99.90;;;;;;4986195;28;20365;-52
2021/09/27 04:37:17;;;;;;;13.73;9.17;;;16.60;99.90;;;;;;4986958;28;20297;-52
2021/09/27 04:39:46;;;;;;;13.10;9.07;;;16.70;99.90;;;;;;4988371;28;20227;-52
2021/09/27 04:42:13;;;;;;;11.97;9.33;;;16.70;99.90;;;;;;4976170;28;20322;-52
2021/09/27 04:45:04;;;;;;;11.83;9.33;;;16.70;99.90;;;;;;4983489;28;20278;-52
2021/09/27 04:47:40;;;;;;;11.93;8.10;;;16.80;99.90;;;;;;4982711;28;20242;-51
2021/09/27 04:50:31;;;;;;;11.90;8.53;;;16.70;99.90;;;;;;4983387;28;20218;-52
2021/09/27 04:53:49;;;;;;;10.30;8.17;;;16.70;99.90;;;;;;4982600;28;20379;-52
2021/09/27 04:56:38;;;;;;;12.40;8.13;;;16.80;99.90;;;;;;5003584;28;20634;-52
2021/09/27 04:59:43;;;;;;;12.17;8.93;;;16.70;99.90;;;;;;5001628;28;20316;-52
2021/09/27 05:02:32;;;;;;;14.23;9.73;;;16.50;99.90;;;;;;5004057;28;20256;-52
2021/09/27 05:05:19;;;;;;;12.80;8.93;;;16.50;99.90;;;;;;5006155;28;20615;-51
2021/09/27 05:07:57;;;;;;;13.33;9.37;;;16.50;99.90;;;;;;5003938;28;20281;-52
2021/09/27 05:10:49;;;;;;;11.57;9.00;;;16.60;99.90;;;;;;4997965;28;20233;-51
2021/09/27 05:13:39;;;;;;;11.77;9.37;;;16.70;99.90;;;;;;4999061;28;20295;-51
2021/09/27 05:16:21;;;;;;;14.00;9.33;;;16.70;99.90;;;;;;4998900;28;20229;-52
2021/09/27 05:19:22;;;;;;;14.50;9.70;;;16.70;99.90;;;;;;5007310;28;20234;-51
2021/09/27 05:22:07;;;;;;;13.53;9.27;;;16.70;99.90;;;;;;5001954;28;20291;-52
2021/09/27 05:24:41;;;;;;;9.93;8.87;;;16.70;99.90;;;;;;5002936;28;20272;-52
2021/09/27 05:27:33;;;;;;;12.77;9.10;;;16.70;99.90;;;;;;5005609;28;20687;-52
2021/09/27 05:30:21;;;;;;;11.30;9.00;;;16.90;99.90;;;;;;5003065;28;20972;-52
2021/09/27 05:33:10;;;;;;;13.63;9.40;;;16.90;99.90;;;;;;5004650;28;20279;-52
2021/09/27 05:36:18;;;;;;;12.30;9.40;;;16.90;99.90;;;;;;5003734;28;20248;-52
2021/09/27 05:38:56;;;;;;;14.63;9.27;;;16.80;99.90;;;;;;5003550;28;20207;-52
2021/09/27 05:41:45;;;;;;;14.90;9.40;;;16.80;99.90;;;;;;5002271;28;20338;-52
2021/09/27 05:44:25;;;;;;;14.33;8.80;;;16.80;99.90;;;;;;4999443;28;20215;-52
2021/09/27 05:47:05;;;;;;;10.77;9.23;;;16.70;99.90;;;;;;5001303;28;20659;-52
2021/09/27 05:49:35;;;;;;;11.47;8.83;;;16.80;99.90;;;;;;5003328;28;20621;-52
2021/09/27 05:52:07;;;;;;;16.33;9.30;;;16.90;99.90;;;;;;5004658;28;20223;-52
2021/09/27 05:55:01;;;;;;;12.80;9.30;;;16.90;99.90;;;;;;5000880;28;20311;-52
2021/09/27 05:57:45;;;;;;;13.10;8.90;;;16.80;99.90;;;;;;5005380;28;20297;-52
2021/09/27 06:00:37;;;;;;;13.40;9.23;;;16.90;99.90;;;;;;5006162;28;20280;-52
2021/09/27 06:03:21;;;;;;;13.40;9.67;;;16.90;99.90;;;;;;4996491;28;20242;-52
2021/09/27 06:06:22;;;;;;;11.23;8.93;;;16.80;99.90;;;;;;4997432;28;20298;-52
2021/09/27 06:09:07;;;;;;;10.77;8.83;;;16.70;99.90;;;;;;4995056;28;20288;-52
2021/09/27 06:11:58;;;;;;;13.77;9.60;;;16.70;99.90;;;;;;4992677;28;20286;-52
2021/09/27 06:14:26;;;;;;;10.17;8.83;;;16.70;99.90;;;;;;5001220;28;20292;-52
2021/09/27 06:17:27;;;;;;;10.80;9.20;;;16.80;99.90;;;;;;4999902;28;20604;-52
2021/09/27 06:20:09;;;;;;;12.13;9.23;;;16.80;99.90;;;;;;4999460;28;20317;-51
2021/09/27 06:22:41;;;;;;;13.13;9.87;;;16.90;99.90;;;;;;4998886;28;20213;-51
2021/09/27 06:25:18;;;;;;;13.57;9.83;;;16.80;99.90;;;;;;4991903;28;20239;-52
2021/09/27 06:28:03;;;;;;;13.63;9.47;;;16.80;99.90;;;;;;5001489;28;20531;-52
2021/09/27 06:30:55;;;;;;;11.47;9.03;;;16.80;99.90;;;;;;5005431;28;20289;-51
2021/09/27 06:34:02;;;;;;;12.33;9.77;;;16.80;99.90;;;;;;5006078;28;20259;-51
2021/09/27 06:36:32;;;;;;;14.23;9.67;;;16.90;99.90;;;;;;5000293;28;20212;-51
2021/09/27 06:39:04;;;;;;;11.27;9.63;;;16.90;99.90;;;;;;5001255;28;20247;-52
2021/09/27 06:41:34;;;;;;;11.37;8.97;;;16.90;99.90;;;;;;4998882;28;20298;-52
2021/09/27 06:44:01;;;;;;;13.37;9.80;;;16.90;99.90;;;;;;4996041;28;20311;-52
2021/09/27 06:46:30;;;;;;;11.40;9.30;;;17.00;99.90;;;;;;5000686;28;20294;-51
2021/09/27 06:48:58;;;;;;;10.77;9.43;;;17.00;99.90;;;;;;5006299;28;20210;-52
2021/09/27 06:51:24;;;;;;;12.17;9.30;;;17.10;99.90;;;;;;5007726;28;20297;-52
2021/09/27 06:53:51;;;;;;;12.43;9.03;;;17.10;99.90;;;;;;4995793;28;20286;-51
2021/09/27 06:56:18;;;;;;;14.37;9.90;;;17.20;99.90;;;;;;4991231;28;20239;-52
2021/09/27 06:58:45;;;;;;;14.03;9.87;;;17.20;99.90;;;;;;4993350;28;20200;-51
2021/09/27 07:01:12;;;;;;;10.43;9.33;;;17.30;99.90;;;;;;4994561;28;20758;-51
2021/09/27 07:03:38;;;;;;;13.87;9.33;;;17.30;99.90;;;;;;5000433;28;20325;-52
2021/09/27 07:06:05;;;;;;;13.23;10.27;;;17.20;99.90;;;;;;4997280;28;20255;-51
2021/09/27 07:08:32;;;;;;;12.40;9.80;;;17.30;99.90;;;;;;4999030;28;20232;-51
2021/09/27 07:10:59;;;;;;;12.30;9.73;;;17.40;99.90;;;;;;4997537;28;20205;-51
2021/09/27 07:13:26;;;;;;;13.70;9.93;;;17.40;99.90;;;;;;4996535;28;20603;-52
2021/09/27 07:15:53;;;;;;;14.80;10.10;;;17.40;99.90;;;;;;5001487;28;20565;-51
2021/09/27 07:18:20;;;;;;;12.97;9.50;;;17.30;99.90;;;;;;5002577;28;20267;-51
2021/09/27 07:20:46;;;;;;;10.20;9.20;;;17.30;99.90;;;;;;5002651;28;20610;-51
2021/09/27 07:23:14;;;;;;;10.73;8.80;;;17.30;99.90;;;;;;4999591;28;20230;-51
2021/09/27 07:25:41;;;;;;;13.53;9.13;;;17.30;99.90;;;;;;4997917;28;20204;-52
2021/09/27 07:28:08;;;;;;;10.80;8.97;;;17.40;99.90;;;;;;5001326;28;20567;-52
2021/09/27 07:30:36;;;;;;;10.87;8.90;;;17.40;99.90;;;;;;4999264;28;20226;-51
2021/09/27 07:33:03;;;;;;;13.33;9.10;;;17.40;99.90;;;;;;5000053;28;20330;-51
2021/09/27 07:35:31;;;;;;;11.40;8.80;;;17.50;99.90;;;;;;4999543;28;20311;-51
2021/09/27 07:37:59;;;;;;;12.20;9.67;;;17.60;99.90;;;;;;4997858;28;20383;-51
2021/09/27 07:40:30;;;;;;;10.23;9.03;;;17.60;99.90;;;;;;4997058;28;20310;-52
2021/09/27 07:42:57;;;;;;;12.40;8.90;;;17.70;99.90;;;;;;5006444;28;20966;-51
2021/09/27 07:45:25;;;;;;;11.47;9.27;;;17.70;99.90;;;;;;4996727;28;20364;-51
2021/09/27 07:47:53;;;;;;;13.53;8.37;;;17.70;99.90;;;;;;4996925;28;20267;-51
2021/09/27 07:50:20;;;;;;;10.87;8.47;;;17.80;99.90;;;;;;4998847;28;20272;-52
2021/09/27 07:52:48;;;;;;;8.43;7.53;;;17.90;99.90;;;;;;4999677;28;20233;-51
2021/09/27 07:55:15;;;;;;;9.63;7.97;;;18.00;99.90;;;;;;4995877;28;20243;-51
2021/09/27 07:57:42;;;;;;;9.67;8.40;;;18.10;99.90;;;;;;5002296;28;20235;-51
2021/09/27 08:00:10;;;;;;;11.87;8.57;;;18.10;99.90;;;;;;4999026;28;20298;-51
2021/09/27 08:02:38;;;;;;;9.90;8.30;;;18.00;99.90;;;;;;4995744;28;20283;-52
2021/09/27 08:05:12;;;;;;;9.17;7.87;;;17.90;99.90;;;;;;5012996;28;20198;-51
2021/09/27 08:07:38;;;;;;;9.20;8.03;;;17.90;99.90;;;;;;5006940;28;20644;-52
2021/09/27 08:10:07;;;;;;;9.67;7.53;;;17.90;99.90;;;;;;4996760;28;20314;-51
2021/09/27 08:12:37;;;;;;;11.00;7.30;;;18.00;99.90;;;;;;4997477;28;20194;-52
2021/09/27 08:15:11;;;;;;;9.73;7.10;;;18.00;99.90;;;;;;5000648;28;20306;-51
2021/09/27 08:17:38;;;;;;;9.50;7.47;;;18.00;99.90;;;;;;4999079;28;20219;-51
2021/09/27 08:20:07;;;;;;;10.03;7.13;;;18.10;99.90;;;;;;4997353;28;20241;-52
2021/09/27 08:22:34;;;;;;;8.17;7.13;;;18.10;99.90;;;;;;4996637;28;20225;-51
2021/09/27 08:25:01;;;;;;;9.50;6.60;;;18.10;99.90;;;;;;4993803;28;20719;-51
2021/09/27 08:27:28;;;;;;;7.87;6.83;;;18.20;99.90;;;;;;4998240;28;20233;-51
2021/09/27 08:29:55;;;;;;;8.13;7.10;;;18.20;99.90;;;;;;4999932;28;20216;-51
2021/09/27 08:32:21;;;;;;;9.43;7.50;;;18.10;99.90;;;;;;5001929;28;20222;-51
2021/09/27 08:34:52;;;;;;;10.17;7.20;;;18.10;99.90;;;;;;5001116;28;20323;-51
2021/09/27 08:37:20;;;;;;;11.40;7.77;;;18.10;99.90;;;;;;5000676;28;20785;-51
2021/09/27 08:39:48;;;;;;;8.43;6.97;;;18.20;99.90;;;;;;4994557;28;20251;-51
2021/09/27 08:42:26;;;;;;;9.83;7.30;;;18.20;99.90;;;;;;5011131;28;20307;-52
2021/09/27 08:45:20;;;;;;;9.70;7.07;;;18.30;99.90;;;;;;5000399;28;20580;-51
2021/09/27 08:48:11;;;;;;;10.03;7.07;;;18.40;99.90;;;;;;5000513;28;20374;-51
2021/09/27 08:50:42;;;;;;;8.00;6.87;;;18.40;99.90;;;;;;5000294;28;20371;-51
2021/09/27 08:53:31;;;;;;;9.17;7.53;;;18.50;99.90;;;;;;5000927;28;20280;-51
2021/09/27 08:56:03;;;;;;;11.00;7.63;;;18.40;99.90;;;;;;4998136;28;20256;-51
2021/09/27 08:58:31;;;;;;;8.30;7.23;;;18.40;99.90;;;;;;4999459;28;20227;-52
2021/09/27 09:01:07;;;;;;;10.57;6.90;;;18.40;99.90;;;;;;4996936;28;21437;-51
2021/09/27 09:04:04;;;;;;;11.93;7.50;;;18.50;99.90;;;;;;4999611;28;20678;-52
2021/09/27 09:06:40;;;;;;;8.60;6.87;;;18.60;99.90;;;;;;4996362;28;20234;-52
2021/09/27 09:09:20;;;;;;;9.03;7.27;;;18.60;99.90;;;;;;4993021;28;20284;-51
2021/09/27 09:11:54;;;;;;;7.97;7.17;;;18.60;99.90;;;;;;4995903;28;20600;-51
2021/09/27 09:14:41;;;;;;;9.00;6.73;;;18.60;99.90;;;;;;4994991;28;20216;-52
2021/09/27 09:17:41;;;;;;;8.17;6.13;;;18.60;99.90;;;;;;4999788;28;20279;-52
2021/09/27 09:20:15;;;;;;;8.17;6.43;;;18.50;99.90;;;;;;4991182;28;20209;-51
2021/09/27 09:22:45;;;;;;;9.47;6.47;;;18.70;99.90;;;;;;4996405;28;20235;-51
2021/09/27 09:25:35;;;;;;;9.23;6.47;;;18.90;99.90;;;;;;4996960;28;20667;-51
2021/09/27 09:28:06;;;;;;;8.93;6.40;;;19.00;99.90;;;;;;4998204;28;20196;-52
2021/09/27 09:31:05;;;;;;;9.30;6.23;;;18.90;99.90;;;;;;4999220;28;20263;-51
2021/09/27 09:33:50;;;;;;;9.37;6.60;;;19.00;99.90;;;;;;5007402;28;20232;-51
2021/09/27 09:36:40;;;;;;;7.53;6.13;;;19.00;99.90;;;;;;4997583;28;20336;-52
2021/09/27 09:39:31;;;;;;;5.80;5.30;;;19.00;99.90;;;;;;4999002;28;20303;-52
2021/09/27 09:42:21;;;;;;;10.57;6.07;;;19.00;99.90;;;;;;4997635;28;20221;-51
2021/09/27 09:44:50;;;;;;;6.17;4.87;;;18.90;99.90;;;;;;4990611;28;20266;-51
2021/09/27 09:47:28;;;;;;;5.73;5.10;;;18.90;99.90;;;;;;4999392;28;20645;-51
2021/09/27 09:50:04;;;;;;;6.03;5.43;;;18.90;99.90;;;;;;5004185;28;20198;-51
2021/09/27 09:52:47;;;;;;;8.20;5.20;;;18.80;99.90;;;;;;4999771;28;20233;-51
2021/09/27 09:55:28;;;;;;;7.83;5.27;;;18.80;99.90;;;;;;4995038;28;20616;-52
2021/09/27 09:58:03;;;;;;;7.37;5.77;;;18.90;99.90;;;;;;5000805;28;20247;-51
2021/09/27 10:00:45;;;;;;;6.37;5.77;;;18.90;99.90;;;;;;4993046;28;20242;-51
2021/09/27 10:03:16;;;;;;;8.10;6.03;;;18.90;99.90;;;;;;5002443;28;20303;-51
2021/09/27 10:05:56;;;;;;;6.63;5.37;;;18.90;99.90;;;;;;4997061;28;20282;-51
2021/09/27 10:08:26;;;;;;;7.83;5.63;;;18.80;99.90;;;;;;4995944;28;20223;-51
2021/09/27 10:11:19;;;;;;;7.17;5.17;;;18.90;99.90;;;;;;4993179;28;20633;-52
2021/09/27 10:13:55;;;;;;;8.67;4.83;;;18.90;99.90;;;;;;4997669;28;20233;-51
2021/09/27 10:16:27;;;;;;;7.97;5.10;;;18.90;99.90;;;;;;4996209;28;20639;-51
2021/09/27 10:19:32;;;;;;;6.87;4.67;;;19.00;99.90;;;;;;4998863;28;20210;-52
2021/09/27 10:22:03;;;;;;;5.80;5.10;;;19.00;99.90;;;;;;4996310;28;20618;-52
2021/09/27 10:24:36;;;;;;;5.37;4.87;;;19.10;99.90;;;;;;4995326;28;20724;-51
2021/09/27 10:27:16;;;;;;;5.97;5.07;;;19.20;99.90;;;;;;5002604;28;20284;-51
2021/09/27 10:29:43;;;;;;;5.03;4.47;;;19.30;99.90;;;;;;4999995;28;20262;-51
2021/09/27 10:32:38;;;;;;;5.27;4.17;;;19.30;99.90;;;;;;5008193;28;20277;-51
2021/09/27 10:35:21;;;;;;;6.00;4.13;;;19.30;99.90;;;;;;5001428;28;20348;-51
2021/09/27 10:37:48;;;;;;;4.87;4.00;;;19.40;99.90;;;;;;4998120;28;20235;-51
2021/09/27 10:40:18;;;;;;;5.90;3.43;;;19.40;99.90;;;;;;4998133;28;20649;-52
2021/09/27 10:42:51;;;;;;;4.33;3.80;;;19.40;99.90;;;;;;4991952;28;20225;-52
2021/09/27 10:45:21;;;;;;;6.13;4.00;;;19.30;99.90;;;;;;5003360;28;20582;-52
2021/09/27 10:47:52;;;;;;;4.67;3.73;;;19.40;99.90;;;;;;4989678;28;20206;-51
2021/09/27 10:50:43;;;;;;;5.27;3.60;;;19.40;99.90;;;;;;4993549;28;20237;-51
2021/09/27 10:53:44;;;;;;;5.27;3.67;;;19.40;99.90;;;;;;4991160;28;20294;-51
2021/09/27 10:56:36;;;;;;;4.40;4.00;;;19.40;99.90;;;;;;4988759;28;20201;-52
2021/09/27 10:59:06;;;;;;;3.40;2.93;;;19.50;99.90;;;;;;4998654;28;20209;-51
2021/09/27 11:01:53;;;;;;;5.33;3.40;;;19.50;99.90;;;;;;4997089;28;20197;-52
2021/09/27 11:04:31;;;;;;;3.93;3.43;;;19.40;99.90;;;;;;5007405;28;20741;-51
2021/09/27 11:07:01;;;;;;;7.53;3.27;;;19.50;99.90;;;;;;4999920;28;20235;-51
2021/09/27 11:09:36;;;;;;;4.77;3.37;;;19.40;99.90;;;;;;4994745;28;20232;-51
2021/09/27 11:12:15;;;;;;;3.83;3.00;;;19.40;99.90;;;;;;4998338;28;20543;-51
2021/09/27 11:14:47;;;;;;;3.37;3.07;;;19.50;99.90;;;;;;4999706;28;20230;-51
2021/09/27 11:17:31;;;;;;;3.97;3.00;;;19.40;99.90;;;;;;5008053;28;20307;-51
2021/09/27 11:20:14;;;;;;;5.17;3.20;;;19.40;99.90;;;;;;5001407;28;20318;-51
2021/09/27 11:22:55;;;;;;;2.60;2.27;;;19.40;75.80;;;;;;5006393;28;20689;-51
2021/09/27 11:25:22;;;;;;;3.47;2.70;;;19.40;48.90;;;;;;4998490;28;20246;-51
2021/09/27 11:28:07;;;;;;;5.73;3.23;;;19.40;99.90;;;;;;5000171;28;20613;-51
2021/09/27 11:30:46;;;;;;;3.67;2.60;;;19.50;99.90;;;;;;5002562;28;20290;-51
2021/09/27 11:33:36;;;;;;;5.40;2.80;;;19.50;97.40;;;;;;5004660;28;20695;-51
2021/09/27 11:36:25;;;;;;;4.33;2.80;;;19.40;89.60;;;;;;4990484;28;20565;-51
2021/09/27 11:39:11;;;;;;;4.00;3.40;;;19.50;99.90;;;;;;4995234;28;20276;-51
2021/09/27 11:41:39;;;;;;;3.30;3.00;;;19.50;95.60;;;;;;4998136;28;20304;-51
2021/09/27 11:44:28;;;;;;;3.07;2.70;;;19.60;15.80;;;;;;4997294;28;20266;-51
2021/09/27 11:47:08;;;;;;;3.10;2.80;;;19.60;8.90;;;;;;4999788;28;20289;-50
2021/09/27 11:50:02;;;;;;;3.57;2.80;;;19.70;16.90;;;;;;5000402;28;20202;-51
2021/09/27 11:52:42;;;;;;;4.43;3.27;;;19.80;6.60;;;;;;5002708;28;20374;-51
2021/09/27 11:55:13;;;;;;;3.37;2.70;;;19.80;1.00;;;;;;4993598;28;20223;-51
2021/09/27 11:57:48;;;;;;;4.70;2.73;;;20.00;1.00;;;;;;5003962;28;20232;-51
2021/09/27 12:00:28;;;;;;;3.23;2.80;;;20.20;1.00;;;;;;4994985;28;20205;-51
2021/09/27 12:03:16;;;;;;;3.83;3.00;;;20.30;1.00;;;;;;5005420;28;20271;-51
2021/09/27 12:06:01;;;;;;;4.87;3.40;;;20.40;1.00;;;;;;4999996;28;20308;-51
2021/09/27 12:08:40;;;;;;;3.60;3.27;;;20.60;99.90;;;;;;4997464;28;20280;-51
2021/09/27 12:11:10;;;;;;;3.93;2.63;;;20.60;99.90;;;;;;4993601;28;20610;-51
2021/09/27 12:14:00;;;;;;;2.97;2.70;;;20.60;1.00;;;;;;5002587;28;20226;-51
2021/09/27 12:16:33;;;;;;;2.57;2.37;;;20.60;99.90;;;;;;5008760;28;20270;-51
2021/09/27 12:19:18;;;;;;;3.67;2.67;;;20.50;99.90;;;;;;5009525;28;20214;-51
2021/09/27 12:21:50;;;;;;;3.80;2.50;;;20.50;99.90;;;;;;5007414;28;20223;-51
2021/09/27 12:24:22;;;;;;;6.43;2.43;;;20.30;99.90;;;;;;5012729;28;20271;-51
2021/09/27 12:27:04;;;;;;;4.63;2.67;;;20.30;35.30;;;;;;5005100;28;20200;-51
2021/09/27 12:29:32;;;;;;;2.27;2.07;;;20.20;1.00;;;;;;5006282;28;20288;-51
2021/09/27 12:32:05;;;;;;;8.60;2.73;;;20.20;1.00;;;;;;5006485;28;20225;-51
2021/09/27 12:34:32;;;;;;;3.57;2.30;;;20.30;1.00;;;;;;5004426;28;20665;-51
2021/09/27 12:37:00;;;;;;;2.80;2.30;;;20.10;1.00;;;;;;5006614;28;20232;-51
2021/09/27 12:39:29;;;;;;;5.87;2.27;;;20.10;1.00;;;;;;5004804;28;20197;-51
2021/09/27 12:41:59;;;;;;;3.67;2.40;;;20.10;1.00;;;;;;4993669;28;20578;-51
2021/09/27 12:44:33;;;;;;;4.77;2.20;;;20.00;1.00;;;;;;5004596;28;20255;-51
2021/09/27 12:47:05;;;;;;;2.73;2.40;;;19.90;1.00;;;;;;5001085;28;20235;-52
2021/09/27 12:49:37;;;;;;;2.60;2.00;;;19.70;84.40;;;;;;4997343;28;20644;-52
2021/09/27 12:52:06;;;;;;;2.87;2.13;;;19.60;99.90;;;;;;4997559;28;20194;-52
2021/09/27 12:54:45;;;;;;;3.67;2.23;;;19.60;99.90;;;;;;5000019;28;20254;-51
2021/09/27 12:57:25;;;;;;;4.00;2.23;;;19.50;99.90;;;;;;4999800;28;20219;-52
2021/09/27 12:59:53;;;;;;;3.40;2.10;;;19.50;99.90;;;;;;4997395;28;20274;-52
2021/09/27 13:02:24;;;;;;;3.67;2.30;;;19.30;99.90;;;;;;5001917;28;20201;-51
2021/09/27 13:05:11;;;;;;;4.40;2.17;;;19.30;99.90;;;;;;4993519;28;20260;-51
2021/09/27 13:07:45;;;;;;;3.00;2.23;;;19.30;99.90;;;;;;5002357;28;20228;-51
2021/09/27 13:10:24;;;;;;;3.83;2.20;;;19.40;99.90;;;;;;4993932;28;20237;-51
2021/09/27 13:13:24;;;;;;;2.43;2.23;;;19.40;99.90;;;;;;4998529;28;20266;-51
2021/09/27 13:16:02;;;;;;;3.33;2.23;;;19.40;99.90;;;;;;4999004;28;20287;-53
2021/09/27 13:18:32;;;;;;;3.03;2.20;;;19.40;99.90;;;;;;5008132;28;20608;-52
2021/09/27 13:21:08;;;;;;;2.33;2.00;;;19.40;99.90;;;;;;5006221;28;20199;-51
2021/09/27 13:23:56;;;;;;;3.87;2.17;;;19.30;99.90;;;;;;5005267;28;20291;-52
2021/09/27 13:26:43;;;;;;;4.37;2.20;;;19.30;99.90;;;;;;4993948;28;20331;-52
2021/09/27 13:29:30;;;;;;;3.73;2.27;;;19.30;99.90;;;;;;4997249;28;20745;-52
2021/09/27 13:32:18;;;;;;;3.73;2.40;;;19.00;99.90;;;;;;4998714;28;20257;-52
2021/09/27 13:35:08;;;;;;;4.13;2.73;;;18.90;99.90;;;;;;4994496;28;20219;-52
2021/09/27 13:37:41;;;;;;;4.47;2.73;;;18.70;99.90;;;;;;4999514;28;20257;-51
2021/09/27 13:40:39;;;;;;;3.23;2.97;;;18.60;99.90;;;;;;4991333;28;20720;-52
2021/09/27 13:43:26;;;;;;;4.03;3.63;;;18.40;99.90;;;;;;4991387;28;20247;-52